createdAt,value
2019-05-10T00:00:28.875Z,3.10
2019-05-10T00:03:29.915Z,3.40
2019-05-10T00:06:15.817Z,3.20
2019-05-10T00:08:46.228Z,3.03
2019-05-10T00:11:30.517Z,2.50
2019-05-10T00:14:05.951Z,2.60
2019-05-10T00:16:34.273Z,2.50
2019-05-10T00:19:02.063Z,2.43
2019-05-10T00:21:29.996Z,2.10
2019-05-10T00:23:57.786Z,2.03
2019-05-10T00:26:25.551Z,2.30
2019-05-10T00:28:53.420Z,2.20
2019-05-10T00:31:23.482Z,2.40
2019-05-10T00:33:51.251Z,2.20
2019-05-10T00:36:19.061Z,2.00
2019-05-10T00:38:46.823Z,2.00
2019-05-10T00:41:14.625Z,1.90
2019-05-10T00:43:42.421Z,1.70
2019-05-10T00:46:10.227Z,1.80
2019-05-10T00:48:37.991Z,1.70
2019-05-10T00:51:05.905Z,1.90
2019-05-10T00:53:33.729Z,1.73
2019-05-10T00:56:01.612Z,1.90
2019-05-10T00:58:29.716Z,1.70
2019-05-10T01:00:57.535Z,1.60
2019-05-10T01:03:25.369Z,1.57
2019-05-10T01:05:53.219Z,1.80
2019-05-10T01:08:21.089Z,1.60
2019-05-10T01:10:48.936Z,1.50
2019-05-10T01:13:16.930Z,1.70
2019-05-10T01:15:46.822Z,1.50
2019-05-10T01:18:14.523Z,1.80
2019-05-10T01:20:42.321Z,1.70
2019-05-10T01:23:10.323Z,1.63
2019-05-10T01:25:38.121Z,1.80
2019-05-10T01:28:05.971Z,1.80
2019-05-10T01:30:34.355Z,1.60
2019-05-10T01:33:07.194Z,1.93
2019-05-10T01:35:34.976Z,1.67
2019-05-10T01:38:02.832Z,2.23
2019-05-10T01:40:30.603Z,2.37
2019-05-10T01:43:00.458Z,2.40
2019-05-10T01:45:28.204Z,2.70
2019-05-10T01:47:56.085Z,2.50
2019-05-10T01:50:23.890Z,2.43
2019-05-10T01:53:22.602Z,2.77
2019-05-10T01:55:52.525Z,3.10
2019-05-10T01:58:20.225Z,2.90
2019-05-10T02:00:47.971Z,2.90
2019-05-10T02:03:15.810Z,3.33
2019-05-10T02:05:43.581Z,3.30
2019-05-10T02:08:11.425Z,3.43
2019-05-10T02:10:39.848Z,3.67
2019-05-10T02:13:12.867Z,3.90
2019-05-10T02:15:40.769Z,3.27
2019-05-10T02:18:08.583Z,3.20
2019-05-10T02:20:36.396Z,3.20
2019-05-10T02:23:19.355Z,3.10
2019-05-10T02:25:47.137Z,3.10
2019-05-10T02:28:14.942Z,3.10
2019-05-10T02:30:42.761Z,2.70
2019-05-10T02:33:10.671Z,2.87
2019-05-10T02:35:38.444Z,3.30
2019-05-10T02:38:06.295Z,3.20
2019-05-10T02:40:34.082Z,2.73
2019-05-10T02:43:01.951Z,3.03
2019-05-10T02:45:29.800Z,2.83
2019-05-10T02:47:57.590Z,3.40
2019-05-10T02:50:25.431Z,3.53
2019-05-10T02:52:53.525Z,3.20
2019-05-10T02:55:22.857Z,2.90
2019-05-10T02:57:51.367Z,2.90
2019-05-10T03:00:19.372Z,3.17
2019-05-10T03:02:54.705Z,3.00
2019-05-10T03:05:27.338Z,3.27
2019-05-10T03:07:58.014Z,3.40
2019-05-10T03:10:31.418Z,2.97
2019-05-10T03:13:01.031Z,3.20
2019-05-10T03:15:36.344Z,3.47
2019-05-10T03:18:04.623Z,2.90
2019-05-10T03:20:35.381Z,3.23
2019-05-10T03:23:22.841Z,3.20
2019-05-10T03:25:50.622Z,3.30
2019-05-10T03:28:18.460Z,3.20
2019-05-10T03:30:46.229Z,3.50
2019-05-10T03:33:14.145Z,3.23
2019-05-10T03:35:42.119Z,3.37
2019-05-10T03:38:09.936Z,2.97
2019-05-10T03:40:37.708Z,3.17
2019-05-10T03:43:30.137Z,3.00
2019-05-10T03:45:57.971Z,3.20
2019-05-10T03:48:25.772Z,3.33
2019-05-10T03:50:53.537Z,3.23
2019-05-10T03:53:21.327Z,3.40
2019-05-10T03:55:49.084Z,3.43
2019-05-10T03:58:16.838Z,3.43
2019-05-10T04:00:44.613Z,3.70
2019-05-10T04:03:12.428Z,3.83
2019-05-10T04:05:40.204Z,4.07
2019-05-10T04:08:07.957Z,3.77
2019-05-10T04:10:35.713Z,4.20
2019-05-10T04:13:04.907Z,3.90
2019-05-10T04:15:32.724Z,4.00
2019-05-10T04:18:00.494Z,3.93
2019-05-10T04:20:28.253Z,4.20
2019-05-10T04:22:55.981Z,3.83
2019-05-10T04:25:23.733Z,4.07
2019-05-10T04:27:51.570Z,4.97
2019-05-10T04:30:21.915Z,4.00
2019-05-10T04:32:49.791Z,5.00
2019-05-10T04:35:17.560Z,4.70
2019-05-10T04:37:45.361Z,4.67
2019-05-10T04:40:13.215Z,4.93
2019-05-10T04:42:41.028Z,4.30
2019-05-10T04:45:09.775Z,4.53
2019-05-10T04:47:37.646Z,3.80
2019-05-10T04:50:05.460Z,4.13
2019-05-10T04:52:33.337Z,3.73
2019-05-10T04:55:01.159Z,3.20
2019-05-10T04:57:28.964Z,3.37
2019-05-10T04:59:56.714Z,2.93
2019-05-10T05:02:24.510Z,2.60
2019-05-10T05:04:52.280Z,2.63
2019-05-10T05:07:20.128Z,2.60
2019-05-10T05:09:47.889Z,2.47
2019-05-10T05:12:20.758Z,2.57
2019-05-10T05:14:48.516Z,2.87
2019-05-10T05:17:16.349Z,2.43
2019-05-10T05:19:44.191Z,2.63
2019-05-10T05:22:17.261Z,2.60
2019-05-10T05:24:45.077Z,2.50
2019-05-10T05:27:12.854Z,2.60
2019-05-10T05:29:40.678Z,2.60
2019-05-10T05:32:08.527Z,2.20
2019-05-10T05:34:36.383Z,2.10
2019-05-10T05:37:04.219Z,2.33
2019-05-10T05:39:32.041Z,2.30
2019-05-10T05:42:00.056Z,2.60
2019-05-10T05:44:28.039Z,2.60
2019-05-10T05:46:55.932Z,2.40
2019-05-10T05:49:23.713Z,2.13
2019-05-10T05:51:51.589Z,2.20
2019-05-10T05:54:20.562Z,2.03
2019-05-10T05:56:53.110Z,2.00
2019-05-10T05:59:23.649Z,2.00
2019-05-10T06:01:50.964Z,2.20
2019-05-10T06:04:18.733Z,2.27
2019-05-10T06:06:46.520Z,2.33
2019-05-10T06:09:14.323Z,2.37
2019-05-10T06:11:42.317Z,2.50
2019-05-10T06:14:12.527Z,2.50
2019-05-10T06:16:44.845Z,2.03
2019-05-10T06:19:09.448Z,1.87
2019-05-10T06:21:37.410Z,2.03
2019-05-10T06:24:07.303Z,2.27
2019-05-10T06:26:34.967Z,2.00
2019-05-10T06:29:04.619Z,2.07
2019-05-10T06:31:32.431Z,2.10
2019-05-10T06:34:00.233Z,2.07
2019-05-10T06:36:28.007Z,1.80
2019-05-10T06:38:55.822Z,1.70
2019-05-10T06:41:23.565Z,2.00
2019-05-10T06:43:53.106Z,1.80
2019-05-10T06:46:23.585Z,1.87
2019-05-10T06:48:51.087Z,2.17
2019-05-10T06:51:18.849Z,2.10
2019-05-10T06:53:52.055Z,1.90
2019-05-10T06:56:16.420Z,1.90
2019-05-10T06:58:44.214Z,2.10
2019-05-10T07:01:11.986Z,11.77
2019-05-10T07:03:39.775Z,2.37
2019-05-10T07:06:07.586Z,2.10
2019-05-10T07:08:43.793Z,3.30
2019-05-10T07:11:05.048Z,2.13
2019-05-10T07:13:32.803Z,1.77
2019-05-10T07:16:01.431Z,2.00
2019-05-10T07:18:29.182Z,2.60
2019-05-10T07:21:00.785Z,1.60
2019-05-10T07:23:29.893Z,2.00
2019-05-10T07:25:56.251Z,1.80
2019-05-10T07:28:24.041Z,2.00
2019-05-10T07:30:51.877Z,2.00
2019-05-10T07:33:19.631Z,1.87
2019-05-10T07:35:48.710Z,2.13
2019-05-10T07:38:16.692Z,1.70
2019-05-10T07:40:44.476Z,1.77
2019-05-10T07:43:12.276Z,2.33
2019-05-10T07:45:40.062Z,1.53
2019-05-10T07:48:10.193Z,2.13
2019-05-10T07:50:42.238Z,5.50
2019-05-10T07:53:07.541Z,1.83
2019-05-10T07:55:35.308Z,1.40
2019-05-10T07:58:05.078Z,1.93
2019-05-10T08:00:38.120Z,1.47
2019-05-10T08:03:13.128Z,1.77
2019-05-10T08:05:32.146Z,1.97
2019-05-10T08:07:59.935Z,1.80
2019-05-10T08:10:29.028Z,2.57
2019-05-10T08:13:03.573Z,2.93
2019-05-10T08:15:34.813Z,1.53
2019-05-10T08:18:02.994Z,2.87
2019-05-10T08:20:46.361Z,2.10
2019-05-10T08:23:02.698Z,1.90
2019-05-10T08:25:36.432Z,2.73
2019-05-10T08:28:03.311Z,1.70
2019-05-10T08:30:42.615Z,2.17
2019-05-10T08:33:09.790Z,4.73
2019-05-10T08:35:38.761Z,2.53
2019-05-10T08:38:06.296Z,1.90
2019-05-10T08:40:37.684Z,1.90
2019-05-10T08:43:08.450Z,2.50
2019-05-10T08:45:38.667Z,1.55
2019-05-10T08:48:06.802Z,1.72
2019-05-10T08:50:48.923Z,1.50
2019-05-10T08:53:10.455Z,1.50
2019-05-10T08:55:32.599Z,1.40
2019-05-10T08:58:02.826Z,1.50
2019-05-10T09:00:45.695Z,1.67
2019-05-10T09:03:00.905Z,1.55
2019-05-10T09:05:31.920Z,1.30
2019-05-10T09:08:03.238Z,1.15
2019-05-10T09:10:28.884Z,1.10
2019-05-10T09:12:58.091Z,1.50
2019-05-10T09:15:26.425Z,1.50
2019-05-10T09:17:58.353Z,1.30
2019-05-10T09:20:26.478Z,1.43
2019-05-10T09:22:58.826Z,1.30
2019-05-10T09:25:30.932Z,1.60
2019-05-10T09:27:56.254Z,1.43
2019-05-10T09:30:35.541Z,1.27
2019-05-10T09:33:14.289Z,1.50
2019-05-10T09:35:46.785Z,1.70
2019-05-10T09:38:12.712Z,1.27
2019-05-10T09:40:50.636Z,1.92
2019-05-10T09:43:12.515Z,1.30
2019-05-10T09:45:42.179Z,1.37
2019-05-10T09:48:12.196Z,1.50
2019-05-10T09:50:44.914Z,1.40
2019-05-10T09:53:10.476Z,1.13
2019-05-10T09:55:39.156Z,1.43
2019-05-10T09:58:08.531Z,0.97
2019-05-10T10:00:37.916Z,1.43
2019-05-10T10:03:08.265Z,1.43
2019-05-10T10:05:39.754Z,1.20
2019-05-10T10:08:09.069Z,1.17
2019-05-10T10:10:37.282Z,1.27
2019-05-10T10:13:13.212Z,1.40
2019-05-10T10:15:37.294Z,1.40
2019-05-10T10:18:05.941Z,1.20
2019-05-10T10:20:35.913Z,3.03
2019-05-10T10:23:07.013Z,1.47
2019-05-10T10:25:40.403Z,1.30
2019-05-10T10:28:10.304Z,1.40
2019-05-10T10:30:37.345Z,1.30
2019-05-10T10:33:10.436Z,1.30
2019-05-10T10:35:37.756Z,1.40
2019-05-10T10:38:07.998Z,1.47
2019-05-10T10:40:44.114Z,2.03
2019-05-10T10:43:21.111Z,3.47
2019-05-10T10:45:48.855Z,1.33
2019-05-10T10:48:17.892Z,1.10
2019-05-10T10:50:53.389Z,1.30
2019-05-10T10:53:17.932Z,1.23
2019-05-10T10:55:54.225Z,1.40
2019-05-10T10:58:18.219Z,1.47
2019-05-10T11:00:47.973Z,1.30
2019-05-10T11:03:15.581Z,1.67
2019-05-10T11:05:43.945Z,1.20
2019-05-10T11:08:11.824Z,1.20
2019-05-10T11:10:40.477Z,1.03
2019-05-10T11:13:17.846Z,1.60
2019-05-10T11:15:39.024Z,1.10
2019-05-10T11:18:06.899Z,1.67
2019-05-10T11:20:34.627Z,1.30
2019-05-10T11:23:02.478Z,1.47
2019-05-10T11:25:30.195Z,1.50
2019-05-10T11:28:01.054Z,1.33
2019-05-10T11:30:28.022Z,1.50
2019-05-10T11:32:55.861Z,1.70
2019-05-10T11:35:30.217Z,1.30
2019-05-10T11:37:53.319Z,1.40
2019-05-10T11:40:29.906Z,1.07
2019-05-10T11:42:53.385Z,1.13
2019-05-10T11:45:25.743Z,1.27
2019-05-10T11:47:54.408Z,1.30
2019-05-10T11:50:31.384Z,1.40
2019-05-10T11:52:51.270Z,1.10
2019-05-10T11:55:21.408Z,1.10
2019-05-10T11:57:59.998Z,1.02
2019-05-10T12:00:28.105Z,1.10
2019-05-10T12:03:03.382Z,1.20
2019-05-10T12:07:47.961Z,1.40
2019-05-10T12:10:24.344Z,1.10
2019-05-10T12:13:01.735Z,1.30
2019-05-10T12:15:24.685Z,1.40
2019-05-10T12:17:53.086Z,1.23
2019-05-10T12:20:17.156Z,1.10
2019-05-10T12:22:47.535Z,1.30
2019-05-10T12:25:37.709Z,1.07
2019-05-10T12:26:30.936Z,1.20
2019-05-10T12:27:49.124Z,1.20
2019-05-10T12:30:16.638Z,1.03
2019-05-10T12:32:55.391Z,1.43
2019-05-10T12:35:14.300Z,1.10
2019-05-10T12:37:46.269Z,1.30
2019-05-10T12:40:15.089Z,1.40
2019-05-10T12:42:56.694Z,0.90
2019-05-10T12:45:24.455Z,1.27
2019-05-10T12:47:52.199Z,0.90
2019-05-10T12:50:20.570Z,1.20
2019-05-10T12:52:50.351Z,0.85
2019-05-10T12:55:18.077Z,1.20
2019-05-10T12:57:45.895Z,1.20
2019-05-10T13:00:15.860Z,1.10
2019-05-10T13:02:44.945Z,0.98
2019-05-10T13:05:15.368Z,0.85
2019-05-10T13:07:42.832Z,1.07
2019-05-10T13:10:11.096Z,1.00
2019-05-10T13:12:44.279Z,1.35
2019-05-10T13:15:10.518Z,1.07
2019-05-10T13:17:44.031Z,1.15
2019-05-10T13:20:09.972Z,1.20
2019-05-10T13:22:39.493Z,0.95
2019-05-10T13:25:07.689Z,1.10
2019-05-10T13:27:35.484Z,1.10
2019-05-10T13:30:03.869Z,1.13
2019-05-10T13:32:31.776Z,0.93
2019-05-10T13:34:59.537Z,0.97
2019-05-10T13:37:27.330Z,1.05
2019-05-10T13:39:58.428Z,1.20
2019-05-10T13:42:24.964Z,1.00
2019-05-10T13:44:52.773Z,1.10
2019-05-10T13:47:20.664Z,1.25
2019-05-10T13:49:49.328Z,1.00
2019-05-10T13:52:17.489Z,1.15
2019-05-10T13:54:45.258Z,1.20
2019-05-10T13:57:13.037Z,1.15
2019-05-10T13:59:40.821Z,0.90
2019-05-10T14:02:08.815Z,1.05
2019-05-10T14:04:38.691Z,1.00
2019-05-10T14:07:06.231Z,1.00
2019-05-10T14:09:34.035Z,1.35
2019-05-10T14:12:02.012Z,1.15
2019-05-10T14:14:29.822Z,1.32
2019-05-10T14:16:57.588Z,1.07
2019-05-10T14:19:25.886Z,1.27
2019-05-10T14:21:54.002Z,1.10
2019-05-10T14:24:23.042Z,1.05
2019-05-10T14:26:56.621Z,0.82
2019-05-10T14:29:21.037Z,1.22
2019-05-10T14:31:51.617Z,1.00
2019-05-10T14:34:19.368Z,0.95
2019-05-10T14:36:47.158Z,0.90
2019-05-10T14:39:14.917Z,0.90
2019-05-10T14:41:45.345Z,1.03
2019-05-10T14:44:13.109Z,1.00
2019-05-10T14:46:40.913Z,1.00
2019-05-10T14:49:09.953Z,1.00
2019-05-10T14:51:56.443Z,1.00
2019-05-10T14:54:08.981Z,0.90
2019-05-10T14:56:56.249Z,1.07
2019-05-10T15:00:08.509Z,1.20
2019-05-10T15:02:46.485Z,0.77
2019-05-10T15:05:48.968Z,1.00
2019-05-10T15:08:30.958Z,1.00
2019-05-10T15:10:59.074Z,1.00
2019-05-10T15:13:28.308Z,0.83
2019-05-10T15:15:56.592Z,1.13
2019-05-10T15:18:24.648Z,1.13
2019-05-10T15:20:52.412Z,0.80
2019-05-10T15:23:20.201Z,1.23
2019-05-10T15:25:57.071Z,0.80
2019-05-10T15:28:34.608Z,1.10
2019-05-10T15:30:59.456Z,1.10
2019-05-10T15:33:27.230Z,1.10
2019-05-10T15:35:54.938Z,0.97
2019-05-10T15:38:22.782Z,0.70
2019-05-10T15:40:54.335Z,1.00
2019-05-10T15:43:22.097Z,0.87
2019-05-10T15:45:54.897Z,0.87
2019-05-10T15:48:19.695Z,1.20
2019-05-10T15:50:47.487Z,1.00
2019-05-10T15:53:19.562Z,1.00
2019-05-10T15:55:44.972Z,1.00
2019-05-10T15:58:12.812Z,1.37
2019-05-10T16:00:41.563Z,0.80
2019-05-10T16:03:09.581Z,1.10
2019-05-10T16:05:43.391Z,0.87
2019-05-10T16:08:07.093Z,1.10
2019-05-10T16:10:39.485Z,1.00
2019-05-10T16:13:04.663Z,1.10
2019-05-10T16:15:32.471Z,0.90
2019-05-10T16:18:01.702Z,1.17
2019-05-10T16:20:31.799Z,0.90
2019-05-10T16:23:02.892Z,1.00
2019-05-10T16:25:32.860Z,0.83
2019-05-10T16:27:58.725Z,1.03
2019-05-10T16:30:26.494Z,0.97
2019-05-10T16:32:54.347Z,1.00
2019-05-10T16:35:22.281Z,0.87
2019-05-10T16:37:50.006Z,1.03
2019-05-10T16:40:17.795Z,1.30
2019-05-10T16:42:46.033Z,1.17
2019-05-10T16:45:14.723Z,0.90
2019-05-10T16:47:42.515Z,1.60
2019-05-10T16:50:10.681Z,2.27
2019-05-10T16:52:44.543Z,2.03
2019-05-10T16:55:12.532Z,1.70
2019-05-10T16:57:40.354Z,1.60
2019-05-10T17:00:10.651Z,2.37
2019-05-10T17:02:42.066Z,1.63
2019-05-10T17:05:09.748Z,1.63
2019-05-10T17:07:38.053Z,1.70
2019-05-10T17:10:06.004Z,1.67
2019-05-10T17:12:33.792Z,1.77
2019-05-10T17:15:02.952Z,1.93
2019-05-10T17:17:36.693Z,1.70
2019-05-10T17:20:00.901Z,1.80
2019-05-10T17:22:29.007Z,1.60
2019-05-10T17:25:02.850Z,1.90
2019-05-10T17:27:26.521Z,1.90
2019-05-10T17:29:54.334Z,1.40
2019-05-10T17:32:24.859Z,3.00
2019-05-10T17:34:52.257Z,1.80
2019-05-10T17:37:20.035Z,1.80
2019-05-10T17:39:47.810Z,1.90
2019-05-10T17:42:15.622Z,2.30
2019-05-10T17:44:43.896Z,1.60
2019-05-10T17:47:11.997Z,1.63
2019-05-10T17:49:39.759Z,1.80
2019-05-10T17:52:07.767Z,1.60
2019-05-10T17:54:39.291Z,1.50
2019-05-10T17:57:10.678Z,2.10
2019-05-10T17:59:37.327Z,1.40
2019-05-10T18:02:05.234Z,1.60
2019-05-10T18:04:33.004Z,1.70
2019-05-10T18:07:00.785Z,1.83
2019-05-10T18:09:28.559Z,1.50
2019-05-10T18:11:56.317Z,2.60
2019-05-10T18:14:24.092Z,2.30
2019-05-10T18:16:51.891Z,1.57
2019-05-10T18:19:24.769Z,2.00
2019-05-10T18:21:59.996Z,4.27
2019-05-10T18:24:24.852Z,3.70
2019-05-10T18:26:54.527Z,2.97
2019-05-10T18:29:22.270Z,2.10
2019-05-10T18:31:58.411Z,3.20
2019-05-10T18:34:33.269Z,2.40
2019-05-10T18:36:55.962Z,1.83
2019-05-10T18:39:23.845Z,2.20
2019-05-10T18:41:56.947Z,2.40
2019-05-10T18:44:24.742Z,1.87
2019-05-10T18:46:54.788Z,2.27
2019-05-10T18:49:22.788Z,1.83
2019-05-10T18:52:03.329Z,2.00
2019-05-10T18:54:30.726Z,2.00
2019-05-10T18:56:58.567Z,3.07
2019-05-10T18:59:26.537Z,2.20
2019-05-10T19:01:54.350Z,1.97
2019-05-10T19:04:22.344Z,2.90
2019-05-10T19:07:01.316Z,2.60
2019-05-10T19:09:20.771Z,2.70
2019-05-10T19:11:48.866Z,2.67
2019-05-10T19:14:17.904Z,3.30
2019-05-10T19:16:45.610Z,3.03
2019-05-10T19:19:13.423Z,3.30
2019-05-10T19:21:41.263Z,3.10
2019-05-10T19:24:09.086Z,3.20
2019-05-10T19:26:36.919Z,3.43
2019-05-10T19:29:06.573Z,2.80
2019-05-10T19:31:38.025Z,3.13
2019-05-10T19:34:09.089Z,2.57
2019-05-10T19:36:34.010Z,2.93
2019-05-10T19:39:01.786Z,3.73
2019-05-10T19:41:29.539Z,2.70
2019-05-10T19:44:02.382Z,2.80
2019-05-10T19:46:30.250Z,2.60
2019-05-10T19:48:57.683Z,2.40
2019-05-10T19:51:25.496Z,2.50
2019-05-10T19:53:53.322Z,2.40
2019-05-10T19:56:21.127Z,2.20
2019-05-10T19:58:49.510Z,2.57
2019-05-10T20:01:33.017Z,2.40
2019-05-10T20:04:00.862Z,2.30
2019-05-10T20:06:28.627Z,3.33
2019-05-10T20:08:56.405Z,2.80
2019-05-10T20:11:24.265Z,2.40
2019-05-10T20:13:52.045Z,2.80
2019-05-10T20:16:19.819Z,2.40
2019-05-10T20:18:47.533Z,2.73
2019-05-10T20:21:15.345Z,5.37
2019-05-10T20:23:43.122Z,7.30
2019-05-10T20:26:10.930Z,5.57
2019-05-10T20:28:38.721Z,3.10
2019-05-10T20:31:06.517Z,2.90
2019-05-10T20:33:34.288Z,2.50
2019-05-10T20:36:02.142Z,2.27
2019-05-10T20:38:29.945Z,2.30
2019-05-10T20:40:57.663Z,2.20
2019-05-10T20:43:25.443Z,2.33
2019-05-10T20:45:53.597Z,2.70
2019-05-10T20:48:21.866Z,2.27
2019-05-10T20:50:49.983Z,2.43
2019-05-10T20:53:28.347Z,4.13
2019-05-10T20:55:56.379Z,3.00
2019-05-10T20:58:24.681Z,2.37
2019-05-10T21:00:52.788Z,2.80
2019-05-10T21:03:20.954Z,2.60
2019-05-10T21:05:49.298Z,3.00
2019-05-10T21:08:17.635Z,3.33
2019-05-10T21:10:45.909Z,3.37
2019-05-10T21:13:14.226Z,3.33
2019-05-10T21:15:42.392Z,3.40
2019-05-10T21:18:10.607Z,3.20
2019-05-10T21:20:38.816Z,2.90
2019-05-10T21:23:17.206Z,3.07
2019-05-10T21:25:45.361Z,4.83
2019-05-10T21:28:13.541Z,3.47
2019-05-10T21:30:41.593Z,6.03
2019-05-10T21:33:09.719Z,5.93
2019-05-10T21:35:38.071Z,5.20
2019-05-10T21:38:06.160Z,3.87
2019-05-10T21:40:34.261Z,6.40
2019-05-10T21:43:02.339Z,5.37
2019-05-10T21:45:30.460Z,3.70
2019-05-10T21:47:58.851Z,5.43
2019-05-10T21:50:26.968Z,5.23
2019-05-10T21:52:55.394Z,3.73
2019-05-10T21:55:23.764Z,5.70
2019-05-10T21:57:51.936Z,5.00
2019-05-10T22:00:23.373Z,4.77
2019-05-10T22:03:02.606Z,5.63
2019-05-10T22:05:30.769Z,3.60
2019-05-10T22:07:59.097Z,3.40
2019-05-10T22:10:27.562Z,3.70
2019-05-10T22:12:55.856Z,3.00
2019-05-10T22:15:43.349Z,4.17
2019-05-10T22:18:11.666Z,3.90
2019-05-10T22:20:39.822Z,3.43
2019-05-10T22:23:07.961Z,4.00
2019-05-10T22:25:36.107Z,3.77
2019-05-10T22:28:04.216Z,3.40
2019-05-10T22:30:32.265Z,3.80
2019-05-10T22:33:00.769Z,3.77
2019-05-10T22:35:29.145Z,3.80
2019-05-10T22:37:57.317Z,4.33
2019-05-10T22:40:26.014Z,4.90
2019-05-10T22:42:59.313Z,4.60
2019-05-10T22:45:27.122Z,4.60
2019-05-10T22:47:54.964Z,4.37
2019-05-10T22:50:22.740Z,3.90
2019-05-10T22:52:50.752Z,4.17
2019-05-10T22:55:18.520Z,4.27
2019-05-10T22:57:46.277Z,4.20
2019-05-10T23:00:14.745Z,4.50
2019-05-10T23:02:42.698Z,4.43
2019-05-10T23:05:10.485Z,4.10
2019-05-10T23:07:38.253Z,3.90
2019-05-10T23:10:06.040Z,4.40
2019-05-10T23:12:34.049Z,4.40
2019-05-10T23:15:01.959Z,4.70
2019-05-10T23:17:29.839Z,4.33
2019-05-10T23:19:57.666Z,4.43
2019-05-10T23:22:30.669Z,4.73
2019-05-10T23:24:58.480Z,4.53
2019-05-10T23:27:26.257Z,4.43
2019-05-10T23:29:54.112Z,4.43
2019-05-10T23:32:21.999Z,4.90
2019-05-10T23:34:50.322Z,4.20
2019-05-10T23:37:18.481Z,4.40
2019-05-10T23:39:46.607Z,4.43
2019-05-10T23:42:14.689Z,4.33
2019-05-10T23:44:42.882Z,4.47
2019-05-10T23:47:11.068Z,4.20
2019-05-10T23:49:39.209Z,4.10
2019-05-10T23:52:07.576Z,4.00
2019-05-10T23:54:35.863Z,3.90
2019-05-10T23:57:04.108Z,3.80
2019-05-10T23:59:32.146Z,3.70
